sensor_id;sensor_type;location;lat;lon;timestamp;temperature;humidity
11239;DHT22;5677;48.488;13.436;2022-11-14T00:00:22;13.60;54.00
11239;DHT22;5677;48.488;13.436;2022-11-14T00:02:49;13.60;54.00
11239;DHT22;5677;48.488;13.436;2022-11-14T00:05:16;13.60;54.00
11239;DHT22;5677;48.488;13.436;2022-11-14T00:07:43;13.60;54.00
11239;DHT22;5677;48.488;13.436;2022-11-14T00:10:10;13.60;54.00
11239;DHT22;5677;48.488;13.436;2022-11-14T00:12:40;13.60;54.00
11239;DHT22;5677;48.488;13.436;2022-11-14T00:15:08;13.60;54.00
11239;DHT22;5677;48.488;13.436;2022-11-14T00:17:35;13.60;54.00
11239;DHT22;5677;48.488;13.436;2022-11-14T00:20:02;13.60;54.00
11239;DHT22;5677;48.488;13.436;2022-11-14T00:22:29;13.60;54.00
11239;DHT22;5677;48.488;13.436;2022-11-14T00:24:56;13.60;54.00
11239;DHT22;5677;48.488;13.436;2022-11-14T00:27:23;13.60;54.00
11239;DHT22;5677;48.488;13.436;2022-11-14T00:29:51;13.60;54.00
11239;DHT22;5677;48.488;13.436;2022-11-14T00:32:18;13.60;53.90
11239;DHT22;5677;48.488;13.436;2022-11-14T00:34:44;13.60;54.00
11239;DHT22;5677;48.488;13.436;2022-11-14T00:37:11;13.60;53.90
11239;DHT22;5677;48.488;13.436;2022-11-14T00:39:38;13.60;53.90
11239;DHT22;5677;48.488;13.436;2022-11-14T00:42:05;13.60;53.90
11239;DHT22;5677;48.488;13.436;2022-11-14T00:44:32;13.60;53.90
11239;DHT22;5677;48.488;13.436;2022-11-14T00:47:00;13.60;53.90
11239;DHT22;5677;48.488;13.436;2022-11-14T00:49:27;13.60;53.90
11239;DHT22;5677;48.488;13.436;2022-11-14T00:51:53;13.60;53.90
11239;DHT22;5677;48.488;13.436;2022-11-14T00:54:20;13.60;53.90
11239;DHT22;5677;48.488;13.436;2022-11-14T00:56:47;13.50;53.90
11239;DHT22;5677;48.488;13.436;2022-11-14T00:59:14;13.50;53.80
11239;DHT22;5677;48.488;13.436;2022-11-14T01:01:41;13.60;53.80
11239;DHT22;5677;48.488;13.436;2022-11-14T01:04:09;13.60;53.90
11239;DHT22;5677;48.488;13.436;2022-11-14T01:06:36;13.50;54.60
11239;DHT22;5677;48.488;13.436;2022-11-14T01:09:03;13.50;53.90
11239;DHT22;5677;48.488;13.436;2022-11-14T01:11:29;13.60;53.80
11239;DHT22;5677;48.488;13.436;2022-11-14T01:13:56;13.50;53.90
11239;DHT22;5677;48.488;13.436;2022-11-14T01:16:23;13.50;53.80
11239;DHT22;5677;48.488;13.436;2022-11-14T01:18:50;13.60;53.90
11239;DHT22;5677;48.488;13.436;2022-11-14T01:21:18;13.60;53.80
11239;DHT22;5677;48.488;13.436;2022-11-14T01:23:45;13.60;53.80
11239;DHT22;5677;48.488;13.436;2022-11-14T01:26:13;13.50;53.80
11239;DHT22;5677;48.488;13.436;2022-11-14T01:28:40;13.50;53.80
11239;DHT22;5677;48.488;13.436;2022-11-14T01:31:09;13.50;53.90
11239;DHT22;5677;48.488;13.436;2022-11-14T01:33:35;13.50;53.80
11239;DHT22;5677;48.488;13.436;2022-11-14T01:36:03;13.50;53.80
11239;DHT22;5677;48.488;13.436;2022-11-14T01:38:31;13.50;53.80
11239;DHT22;5677;48.488;13.436;2022-11-14T01:40:58;13.50;53.80
11239;DHT22;5677;48.488;13.436;2022-11-14T01:43:27;13.50;53.80
11239;DHT22;5677;48.488;13.436;2022-11-14T01:45:57;13.50;53.80
11239;DHT22;5677;48.488;13.436;2022-11-14T01:48:29;13.60;53.80
11239;DHT22;5677;48.488;13.436;2022-11-14T01:50:59;13.50;53.80
11239;DHT22;5677;48.488;13.436;2022-11-14T01:53:27;13.50;53.80
11239;DHT22;5677;48.488;13.436;2022-11-14T01:55:57;13.50;53.70
11239;DHT22;5677;48.488;13.436;2022-11-14T01:58:26;13.50;53.70
11239;DHT22;5677;48.488;13.436;2022-11-14T02:00:54;13.50;53.70
11239;DHT22;5677;48.488;13.436;2022-11-14T02:03:21;13.50;53.70
11239;DHT22;5677;48.488;13.436;2022-11-14T02:05:48;13.50;53.70
11239;DHT22;5677;48.488;13.436;2022-11-14T02:08:17;13.50;53.70
11239;DHT22;5677;48.488;13.436;2022-11-14T02:10:44;13.50;53.70
11239;DHT22;5677;48.488;13.436;2022-11-14T02:13:12;13.50;53.70
11239;DHT22;5677;48.488;13.436;2022-11-14T02:15:39;13.50;53.70
11239;DHT22;5677;48.488;13.436;2022-11-14T02:18:06;13.50;53.70
11239;DHT22;5677;48.488;13.436;2022-11-14T02:20:36;13.50;53.70
11239;DHT22;5677;48.488;13.436;2022-11-14T02:23:08;13.50;53.60
11239;DHT22;5677;48.488;13.436;2022-11-14T02:25:36;13.50;53.60
11239;DHT22;5677;48.488;13.436;2022-11-14T02:28:04;13.50;53.60
11239;DHT22;5677;48.488;13.436;2022-11-14T02:30:32;13.50;53.60
11239;DHT22;5677;48.488;13.436;2022-11-14T02:32:59;13.50;53.60
11239;DHT22;5677;48.488;13.436;2022-11-14T02:35:26;13.50;53.60
11239;DHT22;5677;48.488;13.436;2022-11-14T02:37:54;13.50;53.60
11239;DHT22;5677;48.488;13.436;2022-11-14T02:40:21;13.50;53.60
11239;DHT22;5677;48.488;13.436;2022-11-14T02:42:48;13.50;53.60
11239;DHT22;5677;48.488;13.436;2022-11-14T02:45:15;13.50;53.60
11239;DHT22;5677;48.488;13.436;2022-11-14T02:47:42;13.50;53.70
11239;DHT22;5677;48.488;13.436;2022-11-14T02:50:09;13.50;53.60
11239;DHT22;5677;48.488;13.436;2022-11-14T02:52:36;13.50;53.60
11239;DHT22;5677;48.488;13.436;2022-11-14T02:55:05;13.50;53.60
11239;DHT22;5677;48.488;13.436;2022-11-14T02:57:32;13.50;53.60
11239;DHT22;5677;48.488;13.436;2022-11-14T02:59:58;13.50;53.60
11239;DHT22;5677;48.488;13.436;2022-11-14T03:02:25;13.50;53.50
11239;DHT22;5677;48.488;13.436;2022-11-14T03:04:52;13.50;54.00
11239;DHT22;5677;48.488;13.436;2022-11-14T03:07:19;13.50;53.50
11239;DHT22;5677;48.488;13.436;2022-11-14T03:09:46;13.50;53.50
11239;DHT22;5677;48.488;13.436;2022-11-14T03:12:16;13.50;53.50
11239;DHT22;5677;48.488;13.436;2022-11-14T03:14:43;13.50;53.50
11239;DHT22;5677;48.488;13.436;2022-11-14T03:17:11;13.50;53.50
11239;DHT22;5677;48.488;13.436;2022-11-14T03:19:38;13.50;53.60
11239;DHT22;5677;48.488;13.436;2022-11-14T03:22:04;13.50;53.50
11239;DHT22;5677;48.488;13.436;2022-11-14T03:24:31;13.50;53.50
11239;DHT22;5677;48.488;13.436;2022-11-14T03:26:59;13.50;53.50
11239;DHT22;5677;48.488;13.436;2022-11-14T03:29:27;13.50;53.50
11239;DHT22;5677;48.488;13.436;2022-11-14T03:31:54;13.50;53.50
11239;DHT22;5677;48.488;13.436;2022-11-14T03:34:21;13.50;53.50
11239;DHT22;5677;48.488;13.436;2022-11-14T03:36:48;13.50;53.50
11239;DHT22;5677;48.488;13.436;2022-11-14T03:39:15;13.50;53.50
11239;DHT22;5677;48.488;13.436;2022-11-14T03:41:41;13.50;53.50
11239;DHT22;5677;48.488;13.436;2022-11-14T03:44:08;13.50;53.50
11239;DHT22;5677;48.488;13.436;2022-11-14T03:46:36;13.40;53.50
11239;DHT22;5677;48.488;13.436;2022-11-14T03:49:03;13.40;53.40
11239;DHT22;5677;48.488;13.436;2022-11-14T03:51:30;13.40;53.50
11239;DHT22;5677;48.488;13.436;2022-11-14T03:53:57;13.40;53.40
11239;DHT22;5677;48.488;13.436;2022-11-14T03:56:24;13.40;53.40
11239;DHT22;5677;48.488;13.436;2022-11-14T03:58:50;13.50;53.40
11239;DHT22;5677;48.488;13.436;2022-11-14T04:01:17;13.40;53.40
11239;DHT22;5677;48.488;13.436;2022-11-14T04:03:45;13.40;53.40
11239;DHT22;5677;48.488;13.436;2022-11-14T04:06:12;13.40;53.40
11239;DHT22;5677;48.488;13.436;2022-11-14T04:08:40;13.40;53.40
11239;DHT22;5677;48.488;13.436;2022-11-14T04:11:07;13.40;53.40
11239;DHT22;5677;48.488;13.436;2022-11-14T04:13:34;13.40;53.40
11239;DHT22;5677;48.488;13.436;2022-11-14T04:16:00;13.40;53.40
11239;DHT22;5677;48.488;13.436;2022-11-14T04:18:27;13.40;53.40
11239;DHT22;5677;48.488;13.436;2022-11-14T04:20:56;13.40;53.40
11239;DHT22;5677;48.488;13.436;2022-11-14T04:23:22;13.40;54.00
11239;DHT22;5677;48.488;13.436;2022-11-14T04:25:49;13.40;53.40
11239;DHT22;5677;48.488;13.436;2022-11-14T04:28:16;13.40;53.40
11239;DHT22;5677;48.488;13.436;2022-11-14T04:30:43;13.40;53.40
11239;DHT22;5677;48.488;13.436;2022-11-14T04:33:10;13.40;53.40
11239;DHT22;5677;48.488;13.436;2022-11-14T04:35:37;13.40;53.40
11239;DHT22;5677;48.488;13.436;2022-11-14T04:38:05;13.40;53.40
11239;DHT22;5677;48.488;13.436;2022-11-14T04:40:32;13.40;53.40
11239;DHT22;5677;48.488;13.436;2022-11-14T04:42:59;13.40;53.40
11239;DHT22;5677;48.488;13.436;2022-11-14T04:45:26;13.40;53.40
11239;DHT22;5677;48.488;13.436;2022-11-14T04:47:53;13.40;53.40
11239;DHT22;5677;48.488;13.436;2022-11-14T04:50:19;13.40;53.40
11239;DHT22;5677;48.488;13.436;2022-11-14T04:52:49;13.40;53.40
11239;DHT22;5677;48.488;13.436;2022-11-14T04:55:17;13.40;53.40
11239;DHT22;5677;48.488;13.436;2022-11-14T04:57:44;13.40;53.40
11239;DHT22;5677;48.488;13.436;2022-11-14T05:00:12;13.40;53.40
11239;DHT22;5677;48.488;13.436;2022-11-14T05:02:39;13.40;53.50
11239;DHT22;5677;48.488;13.436;2022-11-14T05:05:06;13.40;53.40
11239;DHT22;5677;48.488;13.436;2022-11-14T05:07:33;13.40;53.50
11239;DHT22;5677;48.488;13.436;2022-11-14T05:10:00;13.40;53.40
11239;DHT22;5677;48.488;13.436;2022-11-14T05:12:28;13.40;53.40
11239;DHT22;5677;48.488;13.436;2022-11-14T05:14:55;13.40;53.40
11239;DHT22;5677;48.488;13.436;2022-11-14T05:17:22;13.40;53.40
11239;DHT22;5677;48.488;13.436;2022-11-14T05:19:49;13.40;53.40
11239;DHT22;5677;48.488;13.436;2022-11-14T05:22:16;13.40;53.40
11239;DHT22;5677;48.488;13.436;2022-11-14T05:24:42;13.40;53.40
11239;DHT22;5677;48.488;13.436;2022-11-14T05:27:09;13.40;53.40
11239;DHT22;5677;48.488;13.436;2022-11-14T05:29:37;13.40;53.40
11239;DHT22;5677;48.488;13.436;2022-11-14T05:32:04;13.40;53.40
11239;DHT22;5677;48.488;13.436;2022-11-14T05:34:31;13.40;53.40
11239;DHT22;5677;48.488;13.436;2022-11-14T05:36:58;13.40;53.40
11239;DHT22;5677;48.488;13.436;2022-11-14T05:39:25;13.40;53.40
11239;DHT22;5677;48.488;13.436;2022-11-14T05:41:51;13.40;53.40
11239;DHT22;5677;48.488;13.436;2022-11-14T05:44:18;13.40;53.40
11239;DHT22;5677;48.488;13.436;2022-11-14T05:46:46;13.40;53.40
11239;DHT22;5677;48.488;13.436;2022-11-14T05:49:13;13.40;53.40
11239;DHT22;5677;48.488;13.436;2022-11-14T05:51:40;13.40;53.40
11239;DHT22;5677;48.488;13.436;2022-11-14T05:54:07;13.40;53.40
11239;DHT22;5677;48.488;13.436;2022-11-14T05:56:33;13.30;53.40
11239;DHT22;5677;48.488;13.436;2022-11-14T05:59:00;13.30;53.40
11239;DHT22;5677;48.488;13.436;2022-11-14T06:01:27;13.40;53.40
11239;DHT22;5677;48.488;13.436;2022-11-14T06:03:55;13.40;53.40
11239;DHT22;5677;48.488;13.436;2022-11-14T06:06:22;13.40;53.40
11239;DHT22;5677;48.488;13.436;2022-11-14T06:08:49;13.40;53.40
11239;DHT22;5677;48.488;13.436;2022-11-14T06:11:18;13.40;53.50
11239;DHT22;5677;48.488;13.436;2022-11-14T06:13:45;13.40;53.40
11239;DHT22;5677;48.488;13.436;2022-11-14T06:16:13;13.30;53.40
11239;DHT22;5677;48.488;13.436;2022-11-14T06:18:41;13.30;53.40
11239;DHT22;5677;48.488;13.436;2022-11-14T06:21:12;13.30;53.40
11239;DHT22;5677;48.488;13.436;2022-11-14T06:23:39;13.30;53.40
11239;DHT22;5677;48.488;13.436;2022-11-14T06:26:11;13.30;53.40
11239;DHT22;5677;48.488;13.436;2022-11-14T06:28:40;13.30;53.40
11239;DHT22;5677;48.488;13.436;2022-11-14T06:31:07;13.30;53.40
11239;DHT22;5677;48.488;13.436;2022-11-14T06:33:35;13.30;53.40
11239;DHT22;5677;48.488;13.436;2022-11-14T06:36:04;13.30;53.40
11239;DHT22;5677;48.488;13.436;2022-11-14T06:38:34;13.30;53.40
11239;DHT22;5677;48.488;13.436;2022-11-14T06:41:02;13.30;53.40
11239;DHT22;5677;48.488;13.436;2022-11-14T06:43:31;13.30;53.40
11239;DHT22;5677;48.488;13.436;2022-11-14T06:45:58;13.30;53.40
11239;DHT22;5677;48.488;13.436;2022-11-14T06:48:25;13.30;53.40
11239;DHT22;5677;48.488;13.436;2022-11-14T06:50:52;13.30;53.40
11239;DHT22;5677;48.488;13.436;2022-11-14T06:53:19;13.30;53.40
11239;DHT22;5677;48.488;13.436;2022-11-14T06:55:54;13.30;53.40
11239;DHT22;5677;48.488;13.436;2022-11-14T06:58:21;13.30;53.40
11239;DHT22;5677;48.488;13.436;2022-11-14T07:00:47;13.30;53.40
11239;DHT22;5677;48.488;13.436;2022-11-14T07:03:14;13.30;53.40
11239;DHT22;5677;48.488;13.436;2022-11-14T07:05:41;13.30;53.30
11239;DHT22;5677;48.488;13.436;2022-11-14T07:08:08;13.40;53.30
11239;DHT22;5677;48.488;13.436;2022-11-14T07:10:34;13.40;53.30
11239;DHT22;5677;48.488;13.436;2022-11-14T07:13:03;13.40;53.20
11239;DHT22;5677;48.488;13.436;2022-11-14T07:15:29;13.40;53.20
11239;DHT22;5677;48.488;13.436;2022-11-14T07:17:57;13.40;53.20
11239;DHT22;5677;48.488;13.436;2022-11-14T07:20:24;13.50;53.30
11239;DHT22;5677;48.488;13.436;2022-11-14T07:22:51;13.50;53.20
11239;DHT22;5677;48.488;13.436;2022-11-14T07:25:17;13.50;53.20
11239;DHT22;5677;48.488;13.436;2022-11-14T07:27:45;13.60;53.20
11239;DHT22;5677;48.488;13.436;2022-11-14T07:30:14;13.60;53.20
11239;DHT22;5677;48.488;13.436;2022-11-14T07:32:41;13.60;53.10
11239;DHT22;5677;48.488;13.436;2022-11-14T07:35:08;13.60;53.10
11239;DHT22;5677;48.488;13.436;2022-11-14T07:37:35;13.60;53.10
11239;DHT22;5677;48.488;13.436;2022-11-14T07:40:02;13.70;53.10
11239;DHT22;5677;48.488;13.436;2022-11-14T07:42:28;13.70;53.10
11239;DHT22;5677;48.488;13.436;2022-11-14T07:44:55;13.70;53.00
11239;DHT22;5677;48.488;13.436;2022-11-14T07:47:23;13.70;53.00
11239;DHT22;5677;48.488;13.436;2022-11-14T07:49:50;13.90;52.90
11239;DHT22;5677;48.488;13.436;2022-11-14T07:52:17;13.90;52.80
11239;DHT22;5677;48.488;13.436;2022-11-14T07:54:44;14.00;52.70
11239;DHT22;5677;48.488;13.436;2022-11-14T07:57:10;14.10;52.50
11239;DHT22;5677;48.488;13.436;2022-11-14T07:59:37;14.30;52.30
11239;DHT22;5677;48.488;13.436;2022-11-14T08:02:04;14.40;52.00
11239;DHT22;5677;48.488;13.436;2022-11-14T08:04:32;14.50;51.80
11239;DHT22;5677;48.488;13.436;2022-11-14T08:06:59;14.60;51.60
11239;DHT22;5677;48.488;13.436;2022-11-14T08:09:25;14.70;51.40
11239;DHT22;5677;48.488;13.436;2022-11-14T08:11:52;14.70;51.10
11239;DHT22;5677;48.488;13.436;2022-11-14T08:14:19;14.90;50.90
11239;DHT22;5677;48.488;13.436;2022-11-14T08:16:46;15.00;50.60
11239;DHT22;5677;48.488;13.436;2022-11-14T08:19:12;15.10;50.40
11239;DHT22;5677;48.488;13.436;2022-11-14T08:21:42;15.20;50.20
11239;DHT22;5677;48.488;13.436;2022-11-14T08:24:09;15.20;49.90
11239;DHT22;5677;48.488;13.436;2022-11-14T08:26:36;15.30;49.70
11239;DHT22;5677;48.488;13.436;2022-11-14T08:29:04;15.40;49.50
11239;DHT22;5677;48.488;13.436;2022-11-14T08:31:30;15.40;49.30
11239;DHT22;5677;48.488;13.436;2022-11-14T08:33:57;15.50;49.10
11239;DHT22;5677;48.488;13.436;2022-11-14T08:36:24;15.50;49.10
11239;DHT22;5677;48.488;13.436;2022-11-14T08:38:53;15.60;49.50
11239;DHT22;5677;48.488;13.436;2022-11-14T08:41:20;15.50;48.90
11239;DHT22;5677;48.488;13.436;2022-11-14T08:43:46;15.50;48.90
11239;DHT22;5677;48.488;13.436;2022-11-14T08:46:13;15.50;49.00
11239;DHT22;5677;48.488;13.436;2022-11-14T08:48:40;15.40;48.90
11239;DHT22;5677;48.488;13.436;2022-11-14T08:51:07;15.40;49.10
11239;DHT22;5677;48.488;13.436;2022-11-14T08:53:34;15.30;49.20
11239;DHT22;5677;48.488;13.436;2022-11-14T08:56:02;15.20;49.30
11239;DHT22;5677;48.488;13.436;2022-11-14T08:58:30;15.20;49.40
11239;DHT22;5677;48.488;13.436;2022-11-14T09:01:01;15.10;49.70
11239;DHT22;5677;48.488;13.436;2022-11-14T09:03:27;15.10;49.80
11239;DHT22;5677;48.488;13.436;2022-11-14T09:05:54;15.00;49.90
11239;DHT22;5677;48.488;13.436;2022-11-14T09:08:21;15.00;50.00
11239;DHT22;5677;48.488;13.436;2022-11-14T09:10:48;14.90;50.20
11239;DHT22;5677;48.488;13.436;2022-11-14T09:13:16;14.90;50.30
11239;DHT22;5677;48.488;13.436;2022-11-14T09:15:43;14.80;50.20
11239;DHT22;5677;48.488;13.436;2022-11-14T09:18:11;14.80;50.40
11239;DHT22;5677;48.488;13.436;2022-11-14T09:20:38;14.70;50.50
11239;DHT22;5677;48.488;13.436;2022-11-14T09:23:05;14.70;50.60
11239;DHT22;5677;48.488;13.436;2022-11-14T09:25:32;14.70;50.80
11239;DHT22;5677;48.488;13.436;2022-11-14T09:28:03;14.60;50.90
11239;DHT22;5677;48.488;13.436;2022-11-14T09:30:32;14.60;50.90
11239;DHT22;5677;48.488;13.436;2022-11-14T09:32:59;14.50;51.10
11239;DHT22;5677;48.488;13.436;2022-11-14T09:35:26;14.50;51.10
11239;DHT22;5677;48.488;13.436;2022-11-14T09:37:59;14.50;51.20
11239;DHT22;5677;48.488;13.436;2022-11-14T09:40:26;14.50;51.20
11239;DHT22;5677;48.488;13.436;2022-11-14T09:43:14;14.50;51.20
11239;DHT22;5677;48.488;13.436;2022-11-14T09:45:48;14.50;51.20
11239;DHT22;5677;48.488;13.436;2022-11-14T09:48:19;14.50;51.20
11239;DHT22;5677;48.488;13.436;2022-11-14T09:50:52;14.50;51.20
11239;DHT22;5677;48.488;13.436;2022-11-14T09:53:29;14.50;51.20
11239;DHT22;5677;48.488;13.436;2022-11-14T09:55:57;14.50;51.20
11239;DHT22;5677;48.488;13.436;2022-11-14T09:58:25;14.40;51.10
11239;DHT22;5677;48.488;13.436;2022-11-14T10:00:59;14.40;51.20
11239;DHT22;5677;48.488;13.436;2022-11-14T10:03:35;14.40;51.20
11239;DHT22;5677;48.488;13.436;2022-11-14T10:06:17;14.40;51.30
11239;DHT22;5677;48.488;13.436;2022-11-14T10:08:57;14.40;51.30
11239;DHT22;5677;48.488;13.436;2022-11-14T10:11:31;14.40;51.40
11239;DHT22;5677;48.488;13.436;2022-11-14T10:14:40;14.30;51.40
11239;DHT22;5677;48.488;13.436;2022-11-14T10:17:21;14.30;51.40
11239;DHT22;5677;48.488;13.436;2022-11-14T10:19:55;14.30;51.40
11239;DHT22;5677;48.488;13.436;2022-11-14T10:22:38;14.30;51.40
11239;DHT22;5677;48.488;13.436;2022-11-14T10:25:18;14.30;51.50
11239;DHT22;5677;48.488;13.436;2022-11-14T10:27:56;14.30;51.50
11239;DHT22;5677;48.488;13.436;2022-11-14T10:30:30;14.30;51.50
11239;DHT22;5677;48.488;13.436;2022-11-14T10:33:09;14.30;51.50
11239;DHT22;5677;48.488;13.436;2022-11-14T10:35:41;14.30;51.50
11239;DHT22;5677;48.488;13.436;2022-11-14T10:38:13;14.30;51.50
11239;DHT22;5677;48.488;13.436;2022-11-14T10:40:43;14.30;51.50
11239;DHT22;5677;48.488;13.436;2022-11-14T10:43:17;14.30;51.60
11239;DHT22;5677;48.488;13.436;2022-11-14T10:45:49;14.30;51.60
11239;DHT22;5677;48.488;13.436;2022-11-14T10:48:28;14.30;51.60
11239;DHT22;5677;48.488;13.436;2022-11-14T10:50:57;14.30;51.60
11239;DHT22;5677;48.488;13.436;2022-11-14T10:53:28;14.30;51.70
11239;DHT22;5677;48.488;13.436;2022-11-14T10:55:59;14.30;51.80
11239;DHT22;5677;48.488;13.436;2022-11-14T10:58:25;14.30;51.80
11239;DHT22;5677;48.488;13.436;2022-11-14T11:00:52;14.30;51.80
11239;DHT22;5677;48.488;13.436;2022-11-14T11:03:39;14.30;51.90
11239;DHT22;5677;48.488;13.436;2022-11-14T11:06:24;14.20;51.90
11239;DHT22;5677;48.488;13.436;2022-11-14T11:08:51;14.20;51.80
11239;DHT22;5677;48.488;13.436;2022-11-14T11:11:37;14.30;51.90
11239;DHT22;5677;48.488;13.436;2022-11-14T11:14:15;14.30;52.00
11239;DHT22;5677;48.488;13.436;2022-11-14T11:16:45;14.20;52.00
11239;DHT22;5677;48.488;13.436;2022-11-14T11:19:21;14.20;52.10
11239;DHT22;5677;48.488;13.436;2022-11-14T11:21:50;14.20;52.00
11239;DHT22;5677;48.488;13.436;2022-11-14T11:24:38;14.20;52.10
11239;DHT22;5677;48.488;13.436;2022-11-14T11:27:12;14.20;52.20
11239;DHT22;5677;48.488;13.436;2022-11-14T11:29:40;14.20;52.10
11239;DHT22;5677;48.488;13.436;2022-11-14T11:32:07;14.20;52.10
11239;DHT22;5677;48.488;13.436;2022-11-14T11:34:35;14.20;52.20
11239;DHT22;5677;48.488;13.436;2022-11-14T11:37:06;14.20;52.20
11239;DHT22;5677;48.488;13.436;2022-11-14T11:39:39;14.20;52.30
11239;DHT22;5677;48.488;13.436;2022-11-14T11:42:11;14.20;52.30
11239;DHT22;5677;48.488;13.436;2022-11-14T11:44:45;14.20;52.30
11239;DHT22;5677;48.488;13.436;2022-11-14T11:47:16;14.20;52.30
11239;DHT22;5677;48.488;13.436;2022-11-14T11:49:46;14.20;52.30
11239;DHT22;5677;48.488;13.436;2022-11-14T11:52:18;14.20;52.20
11239;DHT22;5677;48.488;13.436;2022-11-14T11:54:55;14.20;52.20
11239;DHT22;5677;48.488;13.436;2022-11-14T11:57:29;14.30;52.20
11239;DHT22;5677;48.488;13.436;2022-11-14T12:00:03;14.20;52.10
11239;DHT22;5677;48.488;13.436;2022-11-14T12:02:30;14.40;52.10
11239;DHT22;5677;48.488;13.436;2022-11-14T12:04:59;14.70;52.50
11239;DHT22;5677;48.488;13.436;2022-11-14T12:07:35;14.80;51.30
11239;DHT22;5677;48.488;13.436;2022-11-14T12:10:10;14.80;50.90
11239;DHT22;5677;48.488;13.436;2022-11-14T12:15:44;14.80;50.80
11239;DHT22;5677;48.488;13.436;2022-11-14T12:18:25;14.80;50.90
11239;DHT22;5677;48.488;13.436;2022-11-14T12:21:10;14.90;50.90
11239;DHT22;5677;48.488;13.436;2022-11-14T12:24:09;15.00;50.60
11239;DHT22;5677;48.488;13.436;2022-11-14T12:26:56;15.10;50.30
11239;DHT22;5677;48.488;13.436;2022-11-14T12:29:43;15.20;50.00
11239;DHT22;5677;48.488;13.436;2022-11-14T12:32:16;15.30;49.90
11239;DHT22;5677;48.488;13.436;2022-11-14T12:34:45;15.30;49.80
11239;DHT22;5677;48.488;13.436;2022-11-14T12:37:17;15.30;49.80
11239;DHT22;5677;48.488;13.436;2022-11-14T12:39:55;15.40;49.70
11239;DHT22;5677;48.488;13.436;2022-11-14T12:42:23;15.70;49.20
11239;DHT22;5677;48.488;13.436;2022-11-14T12:44:50;16.00;48.60
11239;DHT22;5677;48.488;13.436;2022-11-14T12:47:19;16.10;48.20
11239;DHT22;5677;48.488;13.436;2022-11-14T12:50:04;16.10;48.10
11239;DHT22;5677;48.488;13.436;2022-11-14T12:52:52;15.90;48.10
11239;DHT22;5677;48.488;13.436;2022-11-14T12:55:53;15.80;48.40
11239;DHT22;5677;48.488;13.436;2022-11-14T12:58:41;15.60;48.80
11239;DHT22;5677;48.488;13.436;2022-11-14T13:01:23;15.40;49.20
11239;DHT22;5677;48.488;13.436;2022-11-14T13:04:05;15.20;49.50
11239;DHT22;5677;48.488;13.436;2022-11-14T13:06:44;15.10;49.90
11239;DHT22;5677;48.488;13.436;2022-11-14T13:09:37;15.00;50.10
11239;DHT22;5677;48.488;13.436;2022-11-14T13:12:33;14.90;50.50
11239;DHT22;5677;48.488;13.436;2022-11-14T13:15:24;14.80;50.60
11239;DHT22;5677;48.488;13.436;2022-11-14T13:18:17;14.70;50.80
11239;DHT22;5677;48.488;13.436;2022-11-14T13:21:05;14.70;51.00
11239;DHT22;5677;48.488;13.436;2022-11-14T13:23:54;14.70;51.20
11239;DHT22;5677;48.488;13.436;2022-11-14T13:26:49;14.60;51.30
11239;DHT22;5677;48.488;13.436;2022-11-14T13:35:51;14.50;51.60
11239;DHT22;5677;48.488;13.436;2022-11-14T13:48:08;14.40;51.90
11239;DHT22;5677;48.488;13.436;2022-11-14T13:50:38;14.40;51.90
11239;DHT22;5677;48.488;13.436;2022-11-14T13:53:11;14.40;52.00
11239;DHT22;5677;48.488;13.436;2022-11-14T13:55:54;14.40;52.00
11239;DHT22;5677;48.488;13.436;2022-11-14T13:58:31;14.40;52.10
11239;DHT22;5677;48.488;13.436;2022-11-14T14:01:10;14.30;52.10
11239;DHT22;5677;48.488;13.436;2022-11-14T14:03:50;14.40;52.20
11239;DHT22;5677;48.488;13.436;2022-11-14T14:06:35;14.30;52.20
11239;DHT22;5677;48.488;13.436;2022-11-14T14:09:12;14.30;52.30
11239;DHT22;5677;48.488;13.436;2022-11-14T14:12:00;14.30;52.30
11239;DHT22;5677;48.488;13.436;2022-11-14T14:14:52;14.30;52.30
11239;DHT22;5677;48.488;13.436;2022-11-14T14:17:28;14.30;52.40
11239;DHT22;5677;48.488;13.436;2022-11-14T14:20:08;14.30;52.50
11239;DHT22;5677;48.488;13.436;2022-11-14T14:22:43;14.30;52.50
11239;DHT22;5677;48.488;13.436;2022-11-14T14:25:17;14.30;52.50
11239;DHT22;5677;48.488;13.436;2022-11-14T14:27:54;14.30;52.60
11239;DHT22;5677;48.488;13.436;2022-11-14T14:30:27;14.30;52.60
11239;DHT22;5677;48.488;13.436;2022-11-14T14:33:13;14.30;52.70
11239;DHT22;5677;48.488;13.436;2022-11-14T14:35:49;14.30;52.70
11239;DHT22;5677;48.488;13.436;2022-11-14T14:38:24;14.20;52.60
11239;DHT22;5677;48.488;13.436;2022-11-14T14:40:53;14.20;52.60
11239;DHT22;5677;48.488;13.436;2022-11-14T14:43:24;14.20;52.70
11239;DHT22;5677;48.488;13.436;2022-11-14T14:45:55;14.30;52.90
11239;DHT22;5677;48.488;13.436;2022-11-14T14:48:24;14.20;53.50
11239;DHT22;5677;48.488;13.436;2022-11-14T14:50:53;14.20;52.80
11239;DHT22;5677;48.488;13.436;2022-11-14T14:53:22;14.20;52.90
11239;DHT22;5677;48.488;13.436;2022-11-14T14:55:52;14.20;52.80
11239;DHT22;5677;48.488;13.436;2022-11-14T14:58:25;14.20;52.90
11239;DHT22;5677;48.488;13.436;2022-11-14T15:00:55;14.20;52.90
11239;DHT22;5677;48.488;13.436;2022-11-14T15:03:25;14.20;52.90
11239;DHT22;5677;48.488;13.436;2022-11-14T15:05:57;14.20;52.90
11239;DHT22;5677;48.488;13.436;2022-11-14T15:08:25;14.20;53.60
11239;DHT22;5677;48.488;13.436;2022-11-14T15:10:53;14.20;52.90
11239;DHT22;5677;48.488;13.436;2022-11-14T15:13:22;14.10;52.90
11239;DHT22;5677;48.488;13.436;2022-11-14T15:15:50;14.10;52.80
11239;DHT22;5677;48.488;13.436;2022-11-14T15:18:22;14.20;52.80
11239;DHT22;5677;48.488;13.436;2022-11-14T15:21:09;14.10;52.80
11239;DHT22;5677;48.488;13.436;2022-11-14T15:23:37;14.10;52.80
11239;DHT22;5677;48.488;13.436;2022-11-14T15:26:11;14.10;52.80
11239;DHT22;5677;48.488;13.436;2022-11-14T15:28:38;14.10;52.80
11239;DHT22;5677;48.488;13.436;2022-11-14T15:31:05;14.10;52.80
11239;DHT22;5677;48.488;13.436;2022-11-14T15:33:34;14.10;52.80
11239;DHT22;5677;48.488;13.436;2022-11-14T15:36:06;14.10;52.90
11239;DHT22;5677;48.488;13.436;2022-11-14T15:38:34;14.10;52.90
11239;DHT22;5677;48.488;13.436;2022-11-14T15:41:25;14.10;52.90
11239;DHT22;5677;48.488;13.436;2022-11-14T15:43:54;14.10;52.80
11239;DHT22;5677;48.488;13.436;2022-11-14T15:46:38;14.10;52.80
11239;DHT22;5677;48.488;13.436;2022-11-14T15:49:19;14.00;52.80
11239;DHT22;5677;48.488;13.436;2022-11-14T15:51:49;14.00;52.80
11239;DHT22;5677;48.488;13.436;2022-11-14T15:54:22;14.00;52.80
11239;DHT22;5677;48.488;13.436;2022-11-14T15:56:49;14.00;52.80
11239;DHT22;5677;48.488;13.436;2022-11-14T15:59:16;14.00;52.80
11239;DHT22;5677;48.488;13.436;2022-11-14T16:01:44;14.00;52.80
11239;DHT22;5677;48.488;13.436;2022-11-14T16:04:15;14.00;52.90
11239;DHT22;5677;48.488;13.436;2022-11-14T16:06:44;14.00;52.80
11239;DHT22;5677;48.488;13.436;2022-11-14T16:09:13;14.00;52.90